Data for 06/29/2010

Time Sea-Level Adjusted Pressure Absolute Pressure Temperature Relative Humidity Dew Point   
(mb) (inHg) (mb) (inHg) (C) (F) (%) (C) (F)
00:05 1018 30.06 847 25.01 22.4 72.3 40 8.3 46.9
00:10 1018 30.06 847 25.01 22.3 72.2 40 8.4 47
00:15 1018 30.06 847 25.01 22.2 72 41 8.4 47.1
00:20 1018 30.06 847 25.01 22.1 71.8 42 8.7 47.6
00:25 1018 30.06 847 25.01 21.9 71.4 42 8.7 47.7
00:30 1018 30.06 847 25.01 21.7 71.1 44 9 48.2
00:35 1018 30.06 847 25.01 21.6 70.9 45 9.2 48.5
00:40 1018 30.06 847 25.01 21.4 70.5 45 9 48.3
00:45 1018 30.06 847 25.01 21.4 70.4 45 9 48.2
00:50 1018 30.06 847 25.01 21.4 70.5 45 9.1 48.3
00:55 1018 30.06 847 25.01 21.3 70.4 46 9.3 48.8
01:00 1018 30.06 847 25.01 21.2 70.1 47 9.5 49.1
01:05 1018 30.06 847 25.01 21 69.7 47 9.5 49.2
01:10 1018 30.06 847 25.01 20.8 69.4 48 9.5 49.1
01:15 1018 30.06 847 25.01 20.9 69.7 48 9.6 49.2
01:20 1018 30.06 847 25.01 20.9 69.5 48 9.7 49.4
01:25 1018 30.06 847 25.01 20.8 69.4 49 9.7 49.4
01:30 1018 30.06 847 25.01 20.8 69.4 49 9.8 49.7
01:35 1018 30.06 847 25.01 20.7 69.2 50 9.9 49.8
01:40 1018 30.06 847 25.01 20.4 68.7 51 10 50
01:45 1018 30.06 847 25.01 20.1 68.2 51 9.9 49.8
01:50 1018 30.06 847 25.01 19.9 67.9 53 10.1 50.2
01:55 1018 30.06 847 25.01 19.6 67.2 54 10.2 50.3
02:00 1018 30.06 847 25.01 19.3 66.7 55 10.1 50.2
02:05 1018 30.06 847 25.01 19 66.3 56 10.1 50.2
02:10 1018 30.06 847 25.01 18.9 66.1 55 9.9 49.8
02:15 1018 30.06 847 25.01 19 66.2 55 10 50
02:20 1018 30.06 847 25.01 19 66.2 55 9.9 49.8
02:25 1018 30.06 847 25.01 18.9 66.1 56 10 49.9
02:30 1017 30.03 847 25.01 19 66.2 55 10 49.9
02:35 1017 30.03 847 25.01 19.2 66.5 54 9.7 49.5
02:40 1017 30.03 847 25.01 19.3 66.8 54 9.9 49.8
02:45 1017 30.03 847 25.01 19.2 66.5 55 10 50.1
02:50 1017 30.03 847 25.01 19.1 66.4 53 9.6 49.2
02:55 1017 30.03 847 25.01 19.2 66.6 53 9.5 49.1
03:00 1017 30.03 846 24.98 19.2 66.6 52 9.2 48.6
03:05 1017 30.03 846 24.98 19.2 66.6 52 9.2 48.6
03:10 1017 30.03 846 24.98 19.2 66.6 52 9.2 48.6
03:15 1017 30.03 846 24.98 19.1 66.5 53 9.4 48.9
03:20 1017 30.03 846 24.98 18.8 65.9 52 8.9 48.1
03:25 1017 30.03 846 24.98 18.6 65.5 52 8.6 47.5
03:30 1017 30.03 846 24.98 18.7 65.7 52 8.8 47.9
03:35 1017 30.03 846 24.98 18.2 64.7 54 8.9 48
03:40 1017 30.03 846 24.98 17.7 63.8 56 8.8 47.8
03:45 1017 30.03 846 24.98 17.9 64.1 53 8.4 47.1
03:50 1017 30.03 846 24.98 17.8 64 53 8.1 46.6
03:55 1017 30.03 846 24.98 17.9 64.3 52 8 46.4
04:00 1017 30.03 846 24.98 18.1 64.5 51 8 46.3
04:05 1017 30.03 846 24.98 18.3 65 50 7.7 45.9
04:10 1017 30.03 846 24.98 18.2 64.7 52 8.3 47
04:15 1017 30.03 846 24.98 17.7 63.8 52 7.8 46
04:20 1017 30.03 846 24.98 17.5 63.4 50 7 44.7
04:25 1017 30.03 846 24.98 17.5 63.5 48 6.6 43.9
04:30 1017 30.03 846 24.98 17.6 63.6 51 7.3 45.1
04:35 1017 30.03 846 24.98 17.5 63.6 46 5.8 42.4
04:40 1017 30.03 846 24.98 17.5 63.4 45 5.5 41.9
04:45 1017 30.03 846 24.98 17.5 63.5 43 5 41
04:50 1017 30.03 846 24.98 17.5 63.4 43 4.7 40.5
04:55 1017 30.03 846 24.98 17.4 63.3 42 4.5 40.1
05:00 1017 30.03 846 24.98 17.2 63 42 4.4 39.9
05:05 1017 30.03 847 25.01 17.1 62.9 46 5.6 42.1
05:10 1017 30.03 847 25.01 17.2 63 43 4.8 40.6
05:15 1017 30.03 847 25.01 17.2 63 45 5.4 41.7
05:20 1018 30.06 847 25.01 17 62.7 46 5.4 41.6
05:25 1018 30.06 847 25.01 16.8 62.2 45 4.9 40.8
05:30 1018 30.06 847 25.01 16.7 62 51 6.5 43.6
05:35 1018 30.06 847 25.01 16.3 61.4 42 3.5 38.3
05:40 1018 30.06 847 25.01 16.1 60.9 43 3.6 38.4
05:45 1018 30.06 847 25.01 15.7 60.2 42 3 37.3
05:50 1018 30.06 847 25.01 15.2 59.4 43 2.9 37.3
05:55 1018 30.06 847 25.01 15.3 59.5 43 2.9 37.1
06:00 1018 30.06 848 25.04 15.4 59.8 44 3.3 37.9
06:05 1018 30.06 848 25.04 15 59 45 3.1 37.6
06:10 1019 30.09 848 25.04 15.6 60.1 43 3.2 37.8
06:15 1019 30.09 848 25.04 15.2 59.3 47 4 39.2
06:20 1019 30.09 848 25.04 14.1 57.4 46 2.7 36.9
06:25 1019 30.09 848 25.04 14.2 57.6 49 3.6 38.5
06:30 1019 30.09 848 25.04 14.6 58.3 43 2.3 36.2
06:35 1019 30.09 848 25.04 15.2 59.4 48 4.3 39.7
06:40 1019 30.09 848 25.04 15.1 59.1 52 5.5 41.9
06:45 1019 30.09 848 25.04 15.4 59.8 50 5 41.1
06:50 1019 30.09 848 25.04 15.3 59.5 54 6 42.9
06:55 1019 30.09 848 25.04 15.5 59.8 56 6.8 44.3
07:00 1019 30.09 848 25.04 15.8 60.4 54 6.7 44.1
07:05 1019 30.09 848 25.04 16.3 61.3 54 7 44.5
07:10 1019 30.09 848 25.04 16.6 61.9 49 6.1 42.9
07:15 1019 30.09 848 25.04 16.9 62.4 50 6.5 43.7
07:20 1019 30.09 848 25.04 17.2 62.9 52 7.2 45
07:25 1019 30.09 848 25.04 17.4 63.3 51 7.4 45.3
07:30 1019 30.09 848 25.04 18 64.4 49 7.3 45.1
07:35 1019 30.09 848 25.04 18.6 65.5 49 7.9 46.1
07:40 1019 30.09 848 25.04 19.2 66.6 47 7.7 45.9
07:45 1019 30.09 848 25.04 19.1 66.4 49 8.2 46.8
07:50 1019 30.09 848 25.04 19.5 67 48 8.4 47.1
07:55 1019 30.09 848 25.04 19.9 67.9 42 6.7 44.1
08:00 1019 30.09 848 25.04 20.5 68.8 40 6.6 43.9
08:05 1019 30.09 848 25.04 21.1 70 38 6.6 43.8
08:10 1019 30.09 848 25.04 20.7 69.2 38 5.9 42.6
08:15 1019 30.09 848 25.04 20.8 69.4 40 6.8 44.2
08:20 1019 30.09 848 25.04 21 69.8 39 6.8 44.2
08:25 1019 30.09 849 25.07 21.1 70 41 7.5 45.5
08:30 1019 30.09 849 25.07 21.4 70.6 42 8.3 46.9
08:35 1019 30.09 849 25.07 22 71.7 42 8.8 47.8
08:40 1019 30.09 848 25.04 21.7 71 41 8.1 46.6
08:45 1019 30.09 848 25.04 21.9 71.4 40 7.8 46
08:50 1019 30.09 848 25.04 22.4 72.4 37 7.3 45.1
08:55 1019 30.09 848 25.04 22.9 73.2 31 5 41.1
09:00 1019 30.09 848 25.04 23.6 74.4 29 4.9 40.9
09:05 1019 30.09 848 25.04 23.4 74.1 34 6.9 44.5
09:10 1019 30.09 848 25.04 22.9 73.1 35 6.9 44.3
09:15 1019 30.09 848 25.04 23.4 74.1 32 6.1 42.9
09:20 1019 30.09 848 25.04 23.8 74.8 33 6.9 44.4
09:25 1018 30.06 848 25.04 23.7 74.7 34 7.2 44.9
09:30 1018 30.06 847 25.01 23.3 74 34 6.8 44.2
09:35 1018 30.06 847 25.01 24 75.1 30 5.6 42.1
09:40 1018 30.06 847 25.01 23.8 74.8 28 4.5 40.2
09:45 1018 30.06 847 25.01 23.9 75 33 6.9 44.5
09:50 1018 30.06 847 25.01 24 75.1 34 7.4 45.3
09:55 1018 30.06 847 25.01 23.7 74.7 35 7.4 45.4
10:00 1018 30.06 847 25.01 23.1 73.6 32 5.5 41.9
10:05 1018 30.06 847 25.01 23.9 75 31 6 42.7
10:10 1017 30.03 847 25.01 23.9 75 30 5.6 42
10:15 1017 30.03 847 25.01 23.8 74.9 30 5.5 41.8
10:20 1017 30.03 846 24.98 24.7 76.4 30 6.1 43
10:25 1017 30.03 847 25.01 24.8 76.6 31 6.8 44.2
10:30 1017 30.03 846 24.98 24.7 76.4 33 7.4 45.3
10:35 1017 30.03 846 24.98 24.7 76.5 33 7.7 45.8
10:40 1017 30.03 846 24.98 24.4 75.9 33 7.3 45.1
10:45 1017 30.03 846 24.98 24.4 75.8 32 7 44.6
10:50 1017 30.03 846 24.98 24.7 76.5 29 5.8 42.4
10:55 1017 30.03 846 24.98 25.8 78.5 27 5.6 42
11:00 1017 30.03 847 25.01 26.4 79.5 25 5.2 41.4
11:05 1017 30.03 847 25.01 26.6 79.9 26 5.8 42.4
11:10 1017 30.03 847 25.01 26.9 80.3 25 5.6 42.1
11:15 1017 30.03 847 25.01 27.1 80.7 24 5.2 41.4
11:20 1017 30.03 847 25.01 27.2 80.9 29 7.7 45.9
11:25 1017 30.03 847 25.01 26.7 80.1 32 8.9 48
11:30 1017 30.03 847 25.01 25.9 78.6 36 9.9 49.7
11:35 1017 30.03 847 25.01 26.4 79.5 35 9.8 49.7
11:40 1018 30.06 847 25.01 26.6 79.9 32 9 48.2
11:45 1018 30.06 847 25.01 26.2 79.2 36 10.4 50.8
11:50 1018 30.06 847 25.01 26.4 79.5 36 10.2 50.4
11:55 1018 30.06 847 25.01 26.4 79.5 33 9.1 48.4
12:00 1018 30.06 847 25.01 27.2 80.9 31 8.8 47.8
12:05 1018 30.06 847 25.01 26.5 79.7 33 9 48.2
12:10 1018 30.06 847 25.01 26.8 80.2 31 8.6 47.5
12:15 1018 30.06 847 25.01 27 80.6 32 9.3 48.8
12:20 1017 30.03 847 25.01 26.9 80.4 32 9.1 48.3
12:25 1017 30.03 847 25.01 27.6 81.6 31 9.4 48.9
12:30 1017 30.03 847 25.01 27.7 81.9 30 9 48.2
12:35 1017 30.03 847 25.01 28.6 83.4 29 9.3 48.8
12:40 1017 30.03 847 25.01 29 84.1 29 9.5 49.1
12:45 1018 30.06 847 25.01 29.3 84.8 29 10 50
12:50 1017 30.03 847 25.01 28.4 83.2 31 10.1 50.2
12:55 1017 30.03 847 25.01 28.7 83.6 29 9.4 48.9
13:00 1017 30.03 847 25.01 28.9 84 32 10.9 51.7
13:05 1017 30.03 846 24.98 29 84.2 29 9.3 48.7
13:10 1017 30.03 846 24.98 29.4 85 30 10.1 50.2
13:15 1017 30.03 846 24.98 28 82.3 30 9.1 48.3
13:20 1017 30.03 846 24.98 28.2 82.8 31 9.8 49.6
13:25 1017 30.03 846 24.98 27.7 81.9 28 8.1 46.6
13:30 1017 30.03 846 24.98 27.5 81.5 26 6.5 43.7
13:35 1017 30.03 846 24.98 27.4 81.3 27 6.8 44.3
13:40 1017 30.03 846 24.98 27.2 81 29 7.7 45.9
13:45 1017 30.03 847 25.01 27 80.7 32 9.1 48.5
13:50 1018 30.06 847 25.01 26.3 79.4 35 9.7 49.5
13:55 1018 30.06 847 25.01 25.7 78.2 37 10.2 50.4
14:00 1018 30.06 848 25.04 25.1 77.1 41 11 51.7
14:05 1019 30.09 848 25.04 24.4 75.9 55 15 59
14:10 1019 30.09 848 25.04 23.7 74.6 54 14 57.2
14:15 1018 30.06 848 25.04 23.8 74.9 52 13.5 56.3
14:20 1018 30.06 848 25.04 24.4 75.9 51 13.6 56.5
14:25 1018 30.06 848 25.04 24.9 76.9 48 13.2 55.8
14:30 1018 30.06 847 25.01 25.7 78.3 45 13.1 55.5
14:35 1018 30.06 847 25.01 25.8 78.4 44 12.7 54.9
14:40 1018 30.06 847 25.01 25.7 78.3 36 9.8 49.6
14:45 1018 30.06 847 25.01 25.6 78.1 40 11.3 52.3
14:50 1017 30.03 847 25.01 25.9 78.6 47 13.8 56.8
14:55 1017 30.03 847 25.01 26 78.8 56 16.8 62.2
15:00 1017 30.03 847 25.01 25.2 77.4 54 15.3 59.6
15:05 1017 30.03 846 24.98 25.2 77.4 52 14.9 58.8
15:10 1017 30.03 846 24.98 25.1 77.2 48 13.6 56.5
15:15 1017 30.03 846 24.98 25.3 77.6 41 11.3 52.3
15:20 1017 30.03 846 24.98 25.9 78.7 39 11.2 52.1
15:25 1017 30.03 846 24.98 27.1 80.8 36 11 51.9
15:30 1017 30.03 846 24.98 26.6 80 38 11.2 52.2
15:35 1017 30.03 846 24.98 26.1 79.1 32 8.3 46.9
15:40 1017 30.03 846 24.98 26 78.8 33 8.9 48.1
15:45 1017 30.03 846 24.98 26.1 78.9 36 10 50.1
15:50 1017 30.03 846 24.98 25.9 78.7 41 11.8 53.2
15:55 1017 30.03 846 24.98 25.2 77.3 42 11.7 53
16:00 1016 30 846 24.98 25.1 77.1 42 11.5 52.6
16:05 1016 30 846 24.98 25 77 42 11.3 52.3
16:10 1017 30.03 846 24.98 25 77 39 10.4 50.8
16:15 1017 30.03 846 24.98 25 77 41 11 51.8
16:20 1018 30.06 847 25.01 25 77 37 9.6 49.2
16:25 1017 30.03 846 24.98 24.5 76.1 39 9.8 49.7
16:30 1017 30.03 846 24.98 25 77 38 9.8 49.6
16:35 1017 30.03 847 25.01 25.3 77.5 38 10.2 50.3
16:40 1017 30.03 846 24.98 24.9 76.8 39 10 50
16:45 1017 30.03 847 25.01 24.7 76.5 38 9.8 49.7
16:50 1017 30.03 846 24.98 25.1 77.1 37 9.4 48.9
16:55 1017 30.03 846 24.98 24.5 76 38 9.4 48.9
17:00 1017 30.03 846 24.98 24 75.2 39 9.4 49
17:05 1017 30.03 846 24.98 23.6 74.4 40 9.6 49.2
17:10 1017 30.03 846 24.98 23.8 74.9 39 9.3 48.7
17:15 1017 30.03 846 24.98 24 75.2 38 8.9 48
17:20 1017 30.03 846 24.98 24.6 76.3 36 8.6 47.5
17:25 1016 30 845 24.95 25.1 77.3 33 8.1 46.5
17:30 1016 30 845 24.95 25.1 77.3 32 7.5 45.5
17:35 1016 30 845 24.95 25.3 77.6 33 8.2 46.8
17:40 1016 30 845 24.95 25.1 77.2 33 7.8 46
17:45 1016 30 845 24.95 25.4 77.8 34 8.6 47.4
17:50 1016 30 845 24.95 25 77.1 36 9.2 48.6
17:55 1016 30 845 24.95 25.1 77.2 37 9.7 49.5
18:00 1016 30 845 24.95 24.8 76.7 40 10.6 51
18:05 1015 29.97 845 24.95 25 77 38 10 50
18:10 1015 29.97 845 24.95 25.6 78 39 10.7 51.2
18:15 1015 29.97 845 24.95 25.4 77.7 35 9 48.1
18:20 1015 29.97 845 24.95 25.9 78.5 27 5.7 42.3
18:25 1015 29.97 845 24.95 25.8 78.5 32 8.1 46.7
18:30 1015 29.97 844 24.92 26.3 79.4 30 7.5 45.4
18:35 1015 29.97 844 24.92 26.9 80.5 29 7.6 45.6
18:40 1015 29.97 845 24.95 27.2 80.9 29 7.9 46.2
18:45 1015 29.97 845 24.95 27.1 80.7 31 8.8 47.9
18:50 1015 29.97 845 24.95 26.7 80 33 9.3 48.7
18:55 1015 29.97 845 24.95 26.2 79.2 32 8.4 47.1
19:00 1015 29.97 845 24.95 26.2 79.2 32 8.6 47.5
19:05 1015 29.97 845 24.95 26.1 78.9 32 8.5 47.3
19:10 1015 29.97 845 24.95 26.2 79.2 34 9.3 48.7
19:15 1015 29.97 845 24.95 25.8 78.4 33 8.6 47.5
19:20 1015 29.97 845 24.95 25.7 78.2 33 8.6 47.5
19:25 1015 29.97 845 24.95 25.5 77.9 33 8.4 47.2
19:30 1016 30 845 24.95 25.5 77.9 34 8.8 47.9
19:35 1016 30 845 24.95 25.4 77.8 39 10.8 51.4
19:40 1016 30 845 24.95 24.9 76.7 48 13.2 55.7
19:45 1016 30 846 24.98 24.2 75.5 50 13.2 55.8
19:50 1017 30.03 846 24.98 23.6 74.4 51 13.1 55.6
19:55 1018 30.06 847 25.01 22.8 73 50 11.9 53.4
20:00 1018 30.06 847 25.01 22.4 72.3 42 8.9 48
20:05 1018 30.06 848 25.04 22 71.5 41 8.3 47
20:10 1019 30.09 848 25.04 21.5 70.8 45 9.3 48.7
20:15 1018 30.06 848 25.04 21.1 69.9 50 10.4 50.7
20:20 1018 30.06 847 25.01 20.7 69.2 47 9.2 48.6
20:25 1018 30.06 848 25.04 20.6 69.1 45 8.4 47.2
20:30 1018 30.06 848 25.04 20.6 69 47 8.9 48.1
20:35 1018 30.06 848 25.04 20.5 68.9 47 9.1 48.3
20:40 1018 30.06 848 25.04 20.3 68.6 50 9.7 49.4
20:45 1018 30.06 847 25.01 20 67.9 52 10 49.9
20:50 1018 30.06 847 25.01 19.8 67.7 54 10.3 50.6
20:55 1018 30.06 847 25.01 19.8 67.7 55 10.8 51.4
21:00 1018 30.06 847 25.01 19.8 67.7 54 10.5 50.8
21:05 1018 30.06 847 25.01 19.8 67.6 52 9.8 49.7
21:10 1018 30.06 847 25.01 19.9 67.7 51 9.6 49.2
21:15 1018 30.06 847 25.01 19.9 67.9 51 9.5 49.2
21:20 1018 30.06 847 25.01 19.9 67.8 51 9.5 49.1
21:25 1018 30.06 847 25.01 19.8 67.7 54 10.3 50.6
21:30 1018 30.06 847 25.01 18.9 66.1 59 10.8 51.4
21:35 1018 30.06 847 25.01 18.4 65.1 60 10.7 51.2
21:40 1018 30.06 847 25.01 18.4 65.1 59 10.3 50.5
21:45 1018 30.06 848 25.04 18.4 65 60 10.4 50.8
21:50 1017 30.03 846 24.98 18.3 64.9 66 11.8 53.3
21:55 1016 30 845 24.95 16.9 62.4 68 11 51.7
22:00 1017 30.03 846 24.98 16.9 62.3 72 11.7 53.1
22:05 1017 30.03 846 24.98 17.1 62.8 68 11.2 52.2
22:10 1017 30.03 846 24.98 16.8 62.2 68 11 51.8
22:15 1017 30.03 846 24.98 16.7 62 70 11.2 52.2
22:20 1017 30.03 846 24.98 17 62.6 62 9.8 49.7
22:25 1017 30.03 846 24.98 17.6 63.6 65 10.9 51.7
22:30 1017 30.03 846 24.98 17.5 63.6 60 9.7 49.4
22:35 1017 30.03 846 24.98 17.7 63.9 59 9.6 49.3
22:40 1017 30.03 846 24.98 17.8 64.1 58 9.5 49.1
22:45 1017 30.03 846 24.98 18.1 64.5 56 9.3 48.7
22:50 1017 30.03 846 24.98 18.2 64.7 56 9.2 48.6
22:55 1017 30.03 846 24.98 18.1 64.6 56 9.2 48.6
23:00 1017 30.03 846 24.98 18.4 65.1 55 9.3 48.8
23:05 1016 30 846 24.98 18.2 64.7 57 9.7 49.4
23:10 1016 30 845 24.95 17.9 64.3 57 9.4 48.9
23:15 1016 30 845 24.95 18.1 64.5 54 8.7 47.6
23:20 1016 30 845 24.95 18.4 65.1 53 8.7 47.6
23:25 1016 30 845 24.95 18.5 65.3 51 8.3 47
23:30 1016 30 845 24.95 18.8 65.8 47 7.4 45.3
23:35 1016 30 845 24.95 19.5 67.1 45 7.5 45.5
23:40 1016 30 845 24.95 19.7 67.5 46 8 46.3
23:45 1016 30 845 24.95 19.6 67.2 47 8 46.4
23:50 1016 30 845 24.95 19.6 67.3 47 8 46.5
23:55 1016 30 845 24.95 19.6 67.2 48 8.2 46.8
24:00 1016 30 845 24.95 19.6 67.3 46 7.9 46.3